Time;durP1;ratioP1;P1;durP2;ratioP2;P2;SDS_P1;SDS_P2;PMS_P1;PMS_P2;Temp;Humidity;BMP_temperature;BMP_pressure;BME280_temperature;BME280_humidity;BME280_pressure;Samples;Min_cycle;Max_cycle;Signal;HPM_P1;HPM_P2
2023/10/29 00:02:16;;;;;;;5.20;3.70;;;;;;;9.82;86.42;98633.90;107433;1254;73139;-37
2023/10/29 00:04:44;;;;;;;5.00;4.00;;;;;;;9.82;86.61;98634.23;107467;1259;60517;-37
2023/10/29 00:07:11;;;;;;;4.80;3.60;;;;;;;9.82;86.88;98632.75;107446;1254;62009;-37
2023/10/29 00:09:40;;;;;;;5.00;3.70;;;;;;;9.87;86.93;98632.26;107399;1254;73859;-37
2023/10/29 00:12:08;;;;;;;5.00;3.70;;;;;;;9.95;86.68;98636.98;107406;1254;65658;-38
2023/10/29 00:14:35;;;;;;;4.00;3.50;;;;;;;10.02;86.31;98636.66;107415;1254;72666;-37
2023/10/29 00:17:03;;;;;;;6.30;4.00;;;;;;;10.05;86.38;98638.46;107426;1257;60136;-37
2023/10/29 00:19:32;;;;;;;5.60;4.20;;;;;;;10.05;86.49;98638.55;107415;1259;60502;-37
2023/10/29 00:21:59;;;;;;;4.00;3.60;;;;;;;10.07;86.62;98643.44;107379;1254;73872;-37
2023/10/29 00:24:27;;;;;;;4.20;3.70;;;;;;;10.13;86.47;98639.07;107392;1254;66860;-38
2023/10/29 00:26:56;;;;;;;5.60;3.70;;;;;;;10.19;86.20;98644.57;107389;1254;71429;-38
2023/10/29 00:29:25;;;;;;;5.70;4.10;;;;;;;10.17;86.20;98646.50;107346;1254;60537;-38
2023/10/29 00:31:53;;;;;;;4.10;3.50;;;;;;;10.15;86.50;98649.00;107235;1259;195108;-36
2023/10/29 00:36:32;;;;;;;4.70;4.00;;;;;;;10.15;86.55;98649.61;104289;1292;601146;-36
2023/10/29 00:39:00;;;;;;;4.80;3.60;;;;;;;10.15;86.36;98651.35;106662;1264;61691;-36
2023/10/29 00:41:28;;;;;;;7.20;3.70;;;;;;;10.18;86.36;98653.38;106670;1263;59162;-36
2023/10/29 00:43:57;;;;;;;4.20;3.60;;;;;;;10.17;86.60;98661.51;106703;1269;70677;-37
2023/10/29 00:46:24;;;;;;;5.50;3.70;;;;;;;10.14;86.84;98668.41;106618;1263;67958;-36
2023/10/29 00:48:52;;;;;;;6.20;3.70;;;;;;;10.12;86.88;98669.48;106736;1269;72702;-37
2023/10/29 00:51:19;;;;;;;5.20;3.30;;;;;;;10.15;86.80;98666.04;106594;1263;182728;-37
2023/10/29 00:53:47;;;;;;;4.80;3.70;;;;;;;10.18;86.58;98663.21;106752;1268;59280;-37
2023/10/29 00:56:18;;;;;;;5.10;3.90;;;;;;;10.16;86.69;98667.59;106814;1263;72234;-37
2023/10/29 00:58:46;;;;;;;4.80;4.20;;;;;;;10.13;87.04;98669.17;107045;1260;67614;-37
2023/10/29 01:01:13;;;;;;;4.50;3.50;;;;;;;10.12;87.10;98666.07;107650;1253;72635;-37
2023/10/29 01:03:41;;;;;;;4.40;3.40;;;;;;;10.17;86.95;98667.85;107698;1256;60366;-37
2023/10/29 01:06:10;;;;;;;5.40;3.50;;;;;;;10.20;86.77;98665.25;107639;1250;60089;-37
2023/10/29 01:08:38;;;;;;;4.60;4.10;;;;;;;10.17;87.00;98667.70;107736;1251;71795;-37
2023/10/29 01:11:07;;;;;;;4.60;3.90;;;;;;;10.14;87.24;98666.16;107704;1251;67585;-37
2023/10/29 01:13:34;;;;;;;5.00;3.60;;;;;;;10.14;87.32;98668.48;107657;1253;72918;-37
2023/10/29 01:16:04;;;;;;;3.80;3.40;;;;;;;10.20;87.19;98663.69;107642;1257;62172;-37
2023/10/29 01:18:32;;;;;;;4.50;3.50;;;;;;;10.26;87.00;98659.27;107759;1251;60100;-38
2023/10/29 01:21:00;;;;;;;4.70;3.90;;;;;;;10.27;86.87;98658.64;107784;1250;71798;-36
2023/10/29 01:23:30;;;;;;;6.70;4.00;;;;;;;10.24;86.98;98652.36;107675;1251;67624;-37
2023/10/29 01:25:59;;;;;;;6.30;4.20;;;;;;;10.26;86.91;98654.85;107708;1250;72628;-37
2023/10/29 01:28:27;;;;;;;4.60;3.60;;;;;;;10.31;86.59;98658.38;107754;1251;61808;-36
2023/10/29 01:30:55;;;;;;;4.30;3.80;;;;;;;10.35;86.32;98663.60;107625;1256;59524;-36
2023/10/29 01:33:23;;;;;;;6.40;4.20;;;;;;;10.35;86.27;98672.73;107585;1250;70985;-36
2023/10/29 01:35:51;;;;;;;4.80;4.20;;;;;;;10.34;86.59;98682.02;107638;1250;67855;-36
2023/10/29 01:38:18;;;;;;;6.40;3.90;;;;;;;10.33;86.49;98686.58;107611;1251;72692;-36
2023/10/29 01:40:47;;;;;;;6.60;3.80;;;;;;;10.38;86.20;98687.70;107611;1256;60385;-36
2023/10/29 01:43:16;;;;;;;4.40;3.50;;;;;;;10.44;86.15;98692.48;107588;1251;60022;-36
2023/10/29 01:45:43;;;;;;;8.20;4.50;;;;;;;10.46;86.27;98701.62;107721;1251;72421;-36
2023/10/29 01:48:11;;;;;;;6.20;4.50;;;;;;;10.47;86.43;98712.01;107648;1257;67914;-36
2023/10/29 01:50:39;;;;;;;5.50;4.10;;;;;;;10.50;86.36;98713.98;107761;1251;72688;-36
2023/10/29 01:53:07;;;;;;;6.70;3.90;;;;;;;10.57;86.12;98711.26;107700;1253;62099;-37
2023/10/29 01:55:38;;;;;;;4.70;4.20;;;;;;;10.63;85.78;98713.30;107642;1250;59579;-36
2023/10/29 01:58:05;;;;;;;5.20;3.90;;;;;;;10.65;85.54;98714.18;107620;1251;73071;-37
2023/10/29 02:00:33;;;;;;;4.80;3.70;;;;;;;10.64;85.54;98713.40;107640;1253;66301;-37
2023/10/29 02:03:01;;;;;;;3.90;3.40;;;;;;;10.66;85.15;98714.41;107706;1256;70425;-36
2023/10/29 02:05:29;;;;;;;3.70;2.90;;;;;;;10.68;83.94;98718.63;107741;1253;62066;-36
2023/10/29 02:07:56;;;;;;;3.30;3.00;;;;;;;10.66;82.85;98722.08;107737;1250;60118;-37
2023/10/29 02:10:25;;;;;;;4.70;3.20;;;;;;;10.58;82.41;98728.52;107762;1251;71760;-37
2023/10/29 02:12:53;;;;;;;3.60;3.00;;;;;;;10.52;82.34;98727.62;107614;1250;67592;-36
2023/10/29 02:15:21;;;;;;;3.30;2.80;;;;;;;10.49;82.27;98734.02;107608;1250;72686;-36
2023/10/29 02:17:48;;;;;;;3.30;2.80;;;;;;;10.49;81.82;98737.20;107624;1256;61708;-37
2023/10/29 02:20:17;;;;;;;3.80;3.10;;;;;;;10.51;81.62;98740.00;107617;1256;60049;-37
2023/10/29 02:22:44;;;;;;;4.80;3.20;;;;;;;10.48;81.11;98748.50;107567;1250;73152;-37
2023/10/29 02:25:12;;;;;;;3.70;3.10;;;;;;;10.41;81.03;98755.16;107660;1251;66438;-37
2023/10/29 02:27:40;;;;;;;4.00;2.90;;;;;;;10.32;80.81;98760.50;107715;1255;71548;-37
2023/10/29 02:30:10;;;;;;;6.40;3.00;;;;;;;10.24;80.69;98763.52;107574;1253;60456;-37
2023/10/29 02:32:38;;;;;;;3.30;2.60;;;;;;;10.24;80.54;98768.85;107652;1250;60029;-36
2023/10/29 02:35:07;;;;;;;4.10;2.90;;;;;;;10.26;80.38;98772.82;107603;1250;73057;-37
2023/10/29 02:37:35;;;;;;;5.10;3.50;;;;;;;10.23;80.47;98780.05;107665;1257;67849;-36
2023/10/29 02:40:03;;;;;;;4.20;3.20;;;;;;;10.19;80.37;98791.84;107718;1252;72666;-37
2023/10/29 02:42:31;;;;;;;5.00;3.20;;;;;;;10.11;80.34;98799.70;107778;1252;61757;-36
2023/10/29 02:44:58;;;;;;;3.80;3.20;;;;;;;10.10;80.41;98807.05;107726;1253;60203;-37
2023/10/29 02:47:26;;;;;;;5.40;3.30;;;;;;;10.13;80.42;98812.56;107672;1254;73054;-37
2023/10/29 02:49:54;;;;;;;6.20;3.60;;;;;;;10.09;80.38;98818.71;107527;1259;67638;-37
2023/10/29 02:52:22;;;;;;;4.30;3.10;;;;;;;10.04;80.46;98821.91;107622;1251;72812;-36
2023/10/29 02:54:49;;;;;;;6.70;3.80;;;;;;;9.97;80.22;98824.06;107719;1254;60179;-36
2023/10/29 02:57:17;;;;;;;4.60;3.20;;;;;;;9.92;80.23;98830.88;107555;1254;59507;-37
2023/10/29 02:59:45;;;;;;;4.80;3.20;;;;;;;9.94;80.22;98833.47;107654;1257;73038;-37
2023/10/29 03:02:12;;;;;;;5.00;3.00;;;;;;;9.94;80.31;98831.91;107402;1251;66751;-37
2023/10/29 03:04:40;;;;;;;4.60;3.30;;;;;;;9.89;80.57;98835.80;107637;1258;71460;-36
2023/10/29 03:07:09;;;;;;;4.90;3.50;;;;;;;9.87;80.70;98839.26;107524;1257;60100;-36
2023/10/29 03:09:39;;;;;;;4.50;3.10;;;;;;;9.87;80.75;98849.69;107481;1253;59569;-36
2023/10/29 03:12:07;;;;;;;3.70;2.90;;;;;;;9.92;80.64;98844.73;107694;1256;73095;-37
2023/10/29 03:14:34;;;;;;;5.30;3.00;;;;;;;9.95;80.70;98843.70;107626;1253;66436;-36
2023/10/29 03:17:02;;;;;;;3.40;2.60;;;;;;;9.95;80.32;98842.05;107640;1254;70400;-36
2023/10/29 03:19:30;;;;;;;4.30;3.40;;;;;;;9.91;80.06;98837.98;107627;1253;59702;-36
2023/10/29 03:21:57;;;;;;;3.90;2.90;;;;;;;9.87;80.00;98838.25;107628;1257;60084;-37
2023/10/29 03:24:25;;;;;;;4.90;2.90;;;;;;;9.86;79.92;98829.41;107495;1259;73495;-37
2023/10/29 03:26:53;;;;;;;4.80;2.90;;;;;;;9.93;79.79;98839.18;107592;1254;66600;-37
2023/10/29 03:29:21;;;;;;;5.60;3.20;;;;;;;9.94;79.98;98844.84;107647;1254;72802;-37
2023/10/29 03:31:48;;;;;;;3.60;2.70;;;;;;;9.89;80.10;98848.48;107642;1257;60152;-37
2023/10/29 03:34:16;;;;;;;4.30;2.30;;;;;;;9.83;80.22;98850.34;107636;1252;59647;-37
2023/10/29 03:36:43;;;;;;;3.50;2.70;;;;;;;9.84;80.35;98845.32;107629;1253;73135;-37
2023/10/29 03:39:11;;;;;;;4.40;2.80;;;;;;;9.90;80.57;98840.92;107653;1258;67919;-37
2023/10/29 03:41:39;;;;;;;3.50;2.50;;;;;;;9.92;80.89;98830.27;107649;1254;71349;-37
2023/10/29 03:44:06;;;;;;;3.90;3.40;;;;;;;9.95;81.10;98813.83;107663;1257;60178;-37
2023/10/29 03:46:34;;;;;;;4.00;2.70;;;;;;;9.99;81.32;98802.19;107556;1256;59490;-37
2023/10/29 03:49:01;;;;;;;3.50;2.80;;;;;;;10.03;80.94;98794.74;107568;1254;71766;-36
2023/10/29 03:51:29;;;;;;;3.80;3.00;;;;;;;10.08;80.65;98796.57;107610;1254;66270;-37
2023/10/29 03:53:57;;;;;;;4.90;3.30;;;;;;;10.08;80.52;98792.77;107561;1256;71209;-37
2023/10/29 03:56:24;;;;;;;4.20;3.30;;;;;;;10.05;80.56;98795.30;107523;1254;60052;-37
2023/10/29 03:58:52;;;;;;;4.40;3.00;;;;;;;10.04;80.48;98801.48;107533;1254;59105;-37
2023/10/29 04:01:20;;;;;;;3.70;2.90;;;;;;;10.03;80.17;98805.56;107530;1251;73084;-36
2023/10/29 04:03:47;;;;;;;4.90;2.90;;;;;;;10.09;80.02;98810.36;107615;1251;67572;-37
2023/10/29 04:06:15;;;;;;;3.70;2.90;;;;;;;10.15;79.80;98814.54;107623;1255;72696;-37
2023/10/29 04:08:43;;;;;;;4.30;3.30;;;;;;;10.17;79.96;98818.52;107629;1253;59670;-37
2023/10/29 04:11:10;;;;;;;3.90;3.50;;;;;;;10.17;80.05;98813.34;107643;1256;59475;-37
2023/10/29 04:13:39;;;;;;;3.80;3.40;;;;;;;10.17;80.09;98814.96;107633;1256;71699;-38
2023/10/29 04:16:07;;;;;;;4.10;3.00;;;;;;;10.17;80.03;98817.83;107587;1253;67766;-38
2023/10/29 04:18:34;;;;;;;5.90;3.20;;;;;;;10.22;79.85;98821.77;107626;1256;71692;-37
2023/10/29 04:21:08;;;;;;;6.30;3.00;;;;;;;10.27;79.63;98836.52;107607;1254;60143;-38
2023/10/29 04:23:36;;;;;;;5.80;3.30;;;;;;;10.24;79.43;98843.23;107619;1255;60194;-38
2023/10/29 04:26:04;;;;;;;5.30;3.10;;;;;;;10.14;79.50;98845.17;107700;1255;73073;-38
2023/10/29 04:28:31;;;;;;;4.40;3.30;;;;;;;10.07;79.65;98850.42;107632;1256;67642;-38
2023/10/29 04:31:00;;;;;;;5.50;2.90;;;;;;;10.01;79.72;98852.84;107612;1256;71475;-38
2023/10/29 04:33:28;;;;;;;3.80;2.70;;;;;;;10.02;79.67;98855.94;107558;1255;61691;-38
2023/10/29 04:35:55;;;;;;;3.20;2.80;;;;;;;10.06;79.74;98857.30;107566;1256;60085;-37
2023/10/29 04:38:23;;;;;;;5.50;3.10;;;;;;;10.04;79.94;98861.05;107588;1253;73532;-38
2023/10/29 04:40:51;;;;;;;3.90;3.10;;;;;;;10.01;80.23;98858.41;107591;1254;67682;-38
2023/10/29 04:43:19;;;;;;;4.90;3.20;;;;;;;9.96;80.33;98862.90;107554;1254;72774;-37
2023/10/29 04:45:46;;;;;;;3.30;3.00;;;;;;;9.94;80.57;98865.35;107547;1254;61720;-38
2023/10/29 04:48:16;;;;;;;4.10;2.60;;;;;;;9.99;80.54;98865.23;107549;1254;60015;-38
2023/10/29 04:50:44;;;;;;;4.70;3.10;;;;;;;10.03;80.55;98864.07;107591;1255;74006;-38
2023/10/29 04:53:11;;;;;;;3.80;3.40;;;;;;;10.06;80.82;98879.58;107591;1256;66748;-38
2023/10/29 04:55:40;;;;;;;4.10;3.40;;;;;;;10.07;81.14;98887.25;107613;1254;72691;-38
2023/10/29 04:58:07;;;;;;;3.40;2.90;;;;;;;10.09;81.14;98893.70;107601;1252;60382;-38
2023/10/29 05:00:35;;;;;;;4.40;3.00;;;;;;;10.08;81.10;98899.02;107631;1254;60454;-38
2023/10/29 05:03:02;;;;;;;3.20;2.60;;;;;;;10.09;80.93;98905.38;107590;1256;72988;-38
2023/10/29 05:05:30;;;;;;;4.70;3.00;;;;;;;10.12;80.93;98908.59;107645;1254;67145;-37
2023/10/29 05:07:58;;;;;;;5.30;3.10;;;;;;;10.11;81.31;98918.34;107612;1254;72701;-37
2023/10/29 05:10:28;;;;;;;4.20;3.30;;;;;;;10.08;81.60;98924.23;107599;1256;60857;-38
2023/10/29 05:12:56;;;;;;;8.20;4.10;;;;;;;10.02;81.66;98928.05;107686;1256;60373;-37
2023/10/29 05:15:24;;;;;;;3.80;2.90;;;;;;;10.04;81.75;98934.26;107685;1256;73863;-37
2023/10/29 05:17:52;;;;;;;6.40;3.30;;;;;;;10.09;81.90;98940.43;107623;1254;67587;-38
2023/10/29 05:20:20;;;;;;;4.20;3.70;;;;;;;10.10;82.14;98944.56;107576;1255;72658;-38
2023/10/29 05:22:47;;;;;;;4.20;3.80;;;;;;;10.07;82.16;98945.90;107558;1251;60491;-38
2023/10/29 05:25:15;;;;;;;7.10;4.30;;;;;;;10.02;82.31;98945.61;107551;1251;60394;-37
2023/10/29 05:28:10;;;;;;;6.90;4.40;;;;;;;10.02;82.21;98947.23;107522;1256;73927;-37
2023/10/29 05:30:39;;;;;;;4.70;4.00;;;;;;;10.07;81.98;98952.56;107549;1256;67600;-38
2023/10/29 05:33:06;;;;;;;6.10;4.20;;;;;;;10.08;82.04;98954.27;107550;1251;71482;-37
2023/10/29 05:35:34;;;;;;;8.10;3.80;;;;;;;10.03;82.07;98959.31;107560;1254;59286;-38
2023/10/29 05:38:01;;;;;;;6.30;4.10;;;;;;;9.98;82.15;98963.88;107552;1251;60294;-37
2023/10/29 05:40:29;;;;;;;6.60;4.10;;;;;;;9.98;82.01;98968.52;107612;1252;72591;-38
2023/10/29 05:42:57;;;;;;;4.90;4.00;;;;;;;10.00;82.18;98972.59;107664;1254;67809;-37
2023/10/29 05:45:24;;;;;;;7.70;3.90;;;;;;;10.00;82.41;98978.77;107679;1256;72726;-37
2023/10/29 05:47:52;;;;;;;6.00;4.60;;;;;;;9.97;82.46;98984.52;107671;1256;60754;-36
2023/10/29 05:50:20;;;;;;;6.00;4.80;;;;;;;9.94;82.49;98985.42;107692;1256;60493;-37
2023/10/29 05:52:48;;;;;;;5.70;5.00;;;;;;;9.98;82.45;98982.85;107635;1252;73861;-37
2023/10/29 05:55:18;;;;;;;6.90;5.00;;;;;;;10.09;82.32;98976.65;107635;1251;67900;-37
2023/10/29 05:57:49;;;;;;;8.70;6.20;;;;;;;10.17;82.33;98977.41;107687;1254;72697;-36
2023/10/29 06:00:17;;;;;;;9.40;6.70;;;;;;;10.20;81.54;98983.04;107696;1256;60155;-37
2023/10/29 06:02:45;;;;;;;6.90;5.30;;;;;;;10.19;81.46;98990.91;107622;1252;59711;-36
2023/10/29 06:05:13;;;;;;;6.30;4.20;;;;;;;10.22;81.28;98996.68;107621;1254;73888;-36
2023/10/29 06:07:44;;;;;;;6.10;3.70;;;;;;;10.27;80.79;98997.98;107556;1251;66669;-37
2023/10/29 06:10:13;;;;;;;7.20;3.70;;;;;;;10.34;80.35;98999.80;107529;1257;72675;-36
2023/10/29 06:12:41;;;;;;;4.30;3.20;;;;;;;10.34;79.87;99008.31;107578;1255;60527;-37
2023/10/29 06:15:10;;;;;;;4.30;3.70;;;;;;;10.29;79.04;99006.32;107582;1254;60373;-36
2023/10/29 06:17:39;;;;;;;5.50;3.30;;;;;;;10.22;78.94;99011.08;107675;1251;72544;-36
2023/10/29 06:20:09;;;;;;;4.80;3.00;;;;;;;10.17;78.80;99015.57;107634;1256;67567;-36
2023/10/29 06:22:36;;;;;;;4.10;3.30;;;;;;;10.22;78.98;99011.69;107639;1254;71449;-37
2023/10/29 06:25:06;;;;;;;6.40;3.50;;;;;;;10.27;78.89;99011.77;107652;1254;60515;-36
2023/10/29 06:27:34;;;;;;;4.50;3.60;;;;;;;10.28;78.24;99006.77;107575;1251;60421;-37
2023/10/29 06:30:01;;;;;;;4.80;3.30;;;;;;;10.28;77.21;99002.27;107647;1251;73798;-37
2023/10/29 06:32:29;;;;;;;5.80;3.90;;;;;;;10.28;76.52;99008.91;107647;1254;67553;-36
2023/10/29 06:34:57;;;;;;;5.40;3.80;;;;;;;10.26;76.43;99011.77;107667;1254;72695;-37
2023/10/29 06:37:24;;;;;;;3.90;3.20;;;;;;;10.32;76.18;99014.09;107633;1253;61756;-36
2023/10/29 06:39:52;;;;;;;3.90;3.40;;;;;;;10.39;76.11;99023.23;107645;1254;60286;-37
2023/10/29 06:42:19;;;;;;;4.40;3.50;;;;;;;10.42;75.25;99026.06;107683;1251;73947;-37
2023/10/29 06:44:47;;;;;;;6.00;3.30;;;;;;;10.44;75.52;99032.85;107641;1253;68004;-37
2023/10/29 06:47:15;;;;;;;5.90;3.50;;;;;;;10.48;75.91;99040.10;107636;1251;71563;-37
2023/10/29 06:49:44;;;;;;;4.00;2.90;;;;;;;10.50;75.60;99041.14;107606;1254;60409;-37
2023/10/29 06:52:12;;;;;;;5.30;3.00;;;;;;;10.56;75.77;99043.70;107595;1251;59667;-37
2023/10/29 06:54:40;;;;;;;8.30;3.00;;;;;;;10.66;75.98;99043.83;107679;1254;72625;-37
2023/10/29 06:57:08;;;;;;;6.00;3.20;;;;;;;10.67;75.51;99049.65;107550;1251;67812;-37
2023/10/29 06:59:36;;;;;;;6.40;3.20;;;;;;;10.64;75.67;99051.32;107588;1251;72725;-37
2023/10/29 07:02:04;;;;;;;7.30;3.50;;;;;;;10.64;75.75;99055.50;107579;1251;60294;-37
2023/10/29 07:04:31;;;;;;;5.20;3.30;;;;;;;10.66;75.61;99061.95;107610;1251;60341;-36
2023/10/29 07:06:59;;;;;;;3.40;2.50;;;;;;;10.71;75.42;99071.16;107461;1251;73788;-37
2023/10/29 07:09:27;;;;;;;3.20;2.60;;;;;;;10.74;75.58;99073.69;107636;1251;65476;-37
2023/10/29 07:11:56;;;;;;;4.40;3.10;;;;;;;10.76;75.76;99079.44;107622;1254;71394;-36
2023/10/29 07:14:23;;;;;;;3.60;3.00;;;;;;;10.75;75.61;99080.66;107656;1251;61071;-36
2023/10/29 07:16:51;;;;;;;4.60;3.00;;;;;;;10.71;75.57;99080.38;107676;1251;60297;-36
2023/10/29 07:19:18;;;;;;;5.00;3.00;;;;;;;10.67;75.72;99075.44;107714;1251;73847;-36
2023/10/29 07:21:46;;;;;;;5.70;2.60;;;;;;;10.70;75.92;99075.02;107677;1253;67892;-37
2023/10/29 07:24:14;;;;;;;4.50;3.30;;;;;;;10.78;76.13;99076.38;107688;1251;72676;-36
2023/10/29 07:26:41;;;;;;;4.00;3.10;;;;;;;10.83;76.38;99079.77;107602;1251;60416;-37
2023/10/29 07:29:11;;;;;;;5.10;3.70;;;;;;;10.86;76.76;99078.80;107651;1251;60262;-37
2023/10/29 07:31:39;;;;;;;4.80;3.50;;;;;;;10.89;76.97;99073.11;107657;1251;73848;-36
2023/10/29 07:34:06;;;;;;;6.30;4.00;;;;;;;10.91;77.01;99067.64;107699;1251;67653;-36
2023/10/29 07:36:34;;;;;;;7.50;3.90;;;;;;;11.00;77.17;99067.83;107713;1254;72732;-37
2023/10/29 07:39:01;;;;;;;6.20;3.90;;;;;;;11.11;77.30;99069.11;107730;1254;60100;-37
2023/10/29 07:41:29;;;;;;;5.50;4.10;;;;;;;11.18;77.28;99070.98;107759;1251;60332;-37
2023/10/29 07:43:57;;;;;;;7.30;4.50;;;;;;;11.20;77.28;99074.64;107776;1256;73824;-37
2023/10/29 07:46:24;;;;;;;6.90;4.50;;;;;;;11.21;77.21;99076.36;107748;1251;66261;-37
2023/10/29 07:48:52;;;;;;;5.90;4.10;;;;;;;11.21;77.42;99077.52;107674;1251;72804;-37
2023/10/29 07:51:20;;;;;;;5.10;3.60;;;;;;;11.26;77.47;99073.79;107718;1254;61675;-37
2023/10/29 07:53:48;;;;;;;6.90;4.40;;;;;;;11.34;77.30;99072.87;107699;1251;60296;-37
2023/10/29 07:56:15;;;;;;;7.60;4.50;;;;;;;11.38;77.54;99071.06;107605;1251;73848;-37
2023/10/29 07:58:44;;;;;;;6.70;4.20;;;;;;;11.42;77.67;99071.80;107616;1251;66243;-37
2023/10/29 08:01:12;;;;;;;6.50;4.60;;;;;;;11.47;77.73;99075.18;107605;1251;72638;-37
2023/10/29 08:03:40;;;;;;;7.50;4.60;;;;;;;11.52;77.83;99075.71;107550;1251;60363;-37
2023/10/29 08:06:09;;;;;;;5.50;4.40;;;;;;;11.66;78.00;99082.73;107649;1251;60411;-37
2023/10/29 08:08:37;;;;;;;6.60;4.00;;;;;;;11.82;77.78;99085.73;107685;1251;73879;-37
2023/10/29 08:11:05;;;;;;;7.00;4.50;;;;;;;11.90;77.39;99087.12;107782;1256;67546;-37
2023/10/29 08:13:32;;;;;;;5.10;4.20;;;;;;;11.91;77.07;99085.96;107743;1253;71457;-37
2023/10/29 08:16:02;;;;;;;6.90;4.20;;;;;;;11.91;77.16;99087.75;107710;1254;60674;-38
2023/10/29 08:18:30;;;;;;;5.80;4.50;;;;;;;11.90;77.27;99089.67;107692;1251;60197;-38
2023/10/29 08:20:58;;;;;;;8.70;4.50;;;;;;;11.93;77.24;99093.35;107701;1251;73935;-37
2023/10/29 08:23:25;;;;;;;6.40;4.30;;;;;;;11.97;76.93;99100.91;107717;1256;67538;-37
2023/10/29 08:25:54;;;;;;;5.60;4.30;;;;;;;11.97;77.24;99104.32;107736;1251;72488;-38
2023/10/29 08:28:24;;;;;;;5.50;4.30;;;;;;;11.94;77.05;99101.44;107734;1251;60479;-37
2023/10/29 08:30:51;;;;;;;5.20;4.30;;;;;;;11.93;77.09;99107.17;107763;1251;60344;-37
2023/10/29 08:33:19;;;;;;;6.00;4.50;;;;;;;11.96;76.76;99112.17;107532;1251;73285;-37
2023/10/29 08:35:47;;;;;;;7.50;4.10;;;;;;;12.00;76.68;99118.95;107782;1251;66718;-37
2023/10/29 08:38:15;;;;;;;5.80;4.00;;;;;;;12.00;77.03;99125.10;107663;1250;72726;-37
2023/10/29 08:40:42;;;;;;;7.30;4.90;;;;;;;12.02;77.39;99132.79;107688;1253;60527;-37
2023/10/29 08:43:10;;;;;;;6.70;4.50;;;;;;;12.07;77.87;99137.88;107713;1251;60418;-36
2023/10/29 08:45:38;;;;;;;6.10;4.10;;;;;;;12.17;77.61;99145.20;107611;1251;72940;-36
2023/10/29 08:48:10;;;;;;;4.50;4.00;;;;;;;12.30;77.46;99137.77;107605;1253;67660;-37
2023/10/29 08:50:38;;;;;;;6.70;4.60;;;;;;;12.38;77.25;99143.27;107614;1250;72470;-37
2023/10/29 08:53:06;;;;;;;5.20;4.30;;;;;;;12.43;76.96;99150.23;107611;1254;60515;-37
2023/10/29 08:55:37;;;;;;;7.10;4.40;;;;;;;12.47;76.66;99147.63;107684;1251;60390;-36
2023/10/29 08:58:05;;;;;;;5.80;4.10;;;;;;;12.50;76.21;99148.33;107703;1251;74618;-37
2023/10/29 09:00:33;;;;;;;4.90;4.10;;;;;;;12.56;76.03;99149.40;107732;1250;66599;-37
2023/10/29 09:03:13;;;;;;;6.50;4.50;;;;;;;12.67;76.22;99148.70;107736;1250;72718;-37
2023/10/29 09:05:41;;;;;;;7.50;4.40;;;;;;;12.73;76.03;99150.38;107761;1253;60402;-37
2023/10/29 09:08:09;;;;;;;6.20;3.80;;;;;;;12.75;75.84;99154.58;107735;1251;60033;-37
2023/10/29 09:10:41;;;;;;;6.00;3.50;;;;;;;12.79;75.60;99153.44;107725;1250;71596;-37
2023/10/29 09:13:10;;;;;;;7.30;3.80;;;;;;;12.79;75.21;99153.13;107733;1251;67588;-37
2023/10/29 09:15:38;;;;;;;4.80;3.10;;;;;;;12.82;74.67;99156.89;107732;1256;72700;-37
2023/10/29 09:18:06;;;;;;;3.90;3.10;;;;;;;12.81;74.56;99162.24;107736;1254;60553;-37
2023/10/29 09:20:35;;;;;;;3.70;3.20;;;;;;;12.76;75.02;99165.39;107829;1250;60049;-37
2023/10/29 09:23:02;;;;;;;4.00;3.20;;;;;;;12.73;75.17;99170.04;107710;1251;73925;-37
2023/10/29 09:25:30;;;;;;;5.30;3.10;;;;;;;12.71;74.47;99174.98;107765;1256;67512;-37
2023/10/29 09:27:58;;;;;;;6.20;3.10;;;;;;;12.72;73.94;99177.71;107739;1250;72687;-37
2023/10/29 09:30:25;;;;;;;5.20;2.80;;;;;;;12.75;73.85;99178.20;107704;1250;60415;-37
2023/10/29 09:32:53;;;;;;;7.00;2.90;;;;;;;12.71;73.43;99174.21;107751;1255;60326;-36
2023/10/29 09:35:24;;;;;;;4.30;3.00;;;;;;;12.63;73.44;99177.58;107701;1251;73832;-37
2023/10/29 09:37:52;;;;;;;4.40;2.70;;;;;;;12.59;73.81;99178.55;107785;1256;66295;-36
2023/10/29 09:40:20;;;;;;;4.60;2.90;;;;;;;12.61;73.90;99179.20;107723;1253;71411;-37
2023/10/29 09:42:53;;;;;;;8.00;3.30;;;;;;;12.66;74.05;99177.29;107663;1251;60383;-37
2023/10/29 09:45:22;;;;;;;6.20;3.30;;;;;;;12.67;74.44;99179.78;107602;1251;60274;-37
2023/10/29 09:47:52;;;;;;;4.80;3.30;;;;;;;12.68;74.64;99174.81;107657;1250;72973;-36
2023/10/29 09:50:24;;;;;;;5.30;2.70;;;;;;;12.71;74.22;99170.10;107701;1250;67462;-37
2023/10/29 09:52:55;;;;;;;5.50;3.30;;;;;;;12.80;73.97;99172.88;107600;1251;72721;-37
2023/10/29 09:55:23;;;;;;;3.50;2.90;;;;;;;12.89;73.73;99173.27;107731;1253;60395;-37
2023/10/29 09:57:51;;;;;;;6.80;3.40;;;;;;;12.93;73.50;99174.98;107606;1250;60265;-37
2023/10/29 10:00:18;;;;;;;6.60;3.20;;;;;;;12.96;73.36;99175.02;107617;1250;73116;-37
2023/10/29 10:02:50;;;;;;;6.40;3.30;;;;;;;12.97;73.05;99172.13;107764;1250;67592;-37
2023/10/29 10:05:18;;;;;;;6.20;3.10;;;;;;;13.01;73.28;99175.66;107687;1253;72715;-37
2023/10/29 10:07:50;;;;;;;3.70;2.90;;;;;;;13.07;73.01;99178.27;107713;1252;60094;-36
2023/10/29 10:10:19;;;;;;;5.20;3.50;;;;;;;13.07;72.80;99185.02;107716;1250;60423;-37
2023/10/29 10:12:50;;;;;;;6.40;3.30;;;;;;;13.05;72.93;99184.25;107619;1250;73844;-37
2023/10/29 10:15:19;;;;;;;5.60;3.00;;;;;;;13.03;72.85;99179.87;107623;1250;66723;-37
2023/10/29 10:17:48;;;;;;;4.00;2.80;;;;;;;13.05;72.80;99172.65;107707;1253;71439;-37
2023/10/29 10:20:20;;;;;;;4.70;2.90;;;;;;;13.14;72.71;99172.03;107727;1253;60737;-37
2023/10/29 10:23:02;;;;;;;3.40;2.90;;;;;;;13.20;72.56;99174.09;107616;1250;60350;-37
2023/10/29 10:25:31;;;;;;;5.40;2.90;;;;;;;13.26;72.08;99168.06;107631;1250;72608;-37
2023/10/29 10:27:59;;;;;;;3.60;2.80;;;;;;;13.32;71.44;99165.44;107679;1250;67554;-37
2023/10/29 10:30:30;;;;;;;5.80;2.70;;;;;;;13.40;71.06;99166.17;107686;1250;71488;-37
2023/10/29 10:33:20;;;;;;;6.50;2.90;;;;;;;13.47;70.25;99168.06;107631;1253;60290;-37
2023/10/29 10:35:50;;;;;;;4.20;2.90;;;;;;;13.53;70.93;99167.47;107716;1250;60412;-37
2023/10/29 10:38:22;;;;;;;4.30;3.10;;;;;;;13.60;70.43;99173.64;107777;1256;72587;-38
2023/10/29 10:41:00;;;;;;;5.00;2.90;;;;;;;13.65;69.95;99171.48;107768;1250;67605;-37
2023/10/29 10:43:28;;;;;;;6.10;2.70;;;;;;;13.70;69.60;99173.45;107711;1251;72698;-37
2023/10/29 10:45:56;;;;;;;4.90;2.90;;;;;;;13.78;69.10;99175.50;107800;1253;60550;-37
2023/10/29 10:48:23;;;;;;;5.20;3.00;;;;;;;13.84;69.30;99177.23;107747;1250;60457;-37
2023/10/29 10:50:53;;;;;;;5.00;3.00;;;;;;;13.85;69.21;99180.65;107745;1250;74294;-37
2023/10/29 10:53:20;;;;;;;5.00;3.20;;;;;;;13.85;68.75;99182.29;107749;1250;67707;-37
2023/10/29 10:55:48;;;;;;;4.50;2.90;;;;;;;13.84;68.83;99183.07;107697;1250;70861;-37
2023/10/29 10:58:30;;;;;;;3.60;2.70;;;;;;;13.84;68.76;99184.08;107592;1253;61691;-37
2023/10/29 11:00:58;;;;;;;4.80;3.00;;;;;;;13.88;68.02;99189.14;107763;1250;60524;-37
2023/10/29 11:03:32;;;;;;;6.40;3.00;;;;;;;13.90;67.78;99187.52;107748;1250;74473;-38
2023/10/29 11:06:01;;;;;;;4.20;3.20;;;;;;;13.91;67.85;99183.09;107664;1250;67588;-37
2023/10/29 11:08:29;;;;;;;3.70;2.90;;;;;;;13.98;67.52;99189.48;107519;1250;72747;-38
2023/10/29 11:10:58;;;;;;;4.40;2.80;;;;;;;14.09;67.35;99194.56;107678;1252;60422;-37
2023/10/29 11:13:26;;;;;;;3.10;2.80;;;;;;;14.27;66.91;99189.77;107693;1251;60393;-38
2023/10/29 11:15:55;;;;;;;2.30;1.70;;;;;;;14.51;65.70;99184.67;107672;1251;73901;-37
2023/10/29 11:18:31;;;;;;;5.40;2.80;;;;;;;14.69;64.88;99187.23;107638;1255;67617;-37
2023/10/29 11:21:02;;;;;;;3.50;2.60;;;;;;;14.73;64.04;99188.11;107637;1250;72313;-37
2023/10/29 11:23:30;;;;;;;;;;;;;;;14.72;63.82;99196.60;107667;1250;60377;-38
2023/10/29 11:26:21;;;;;;;4.50;2.40;;;;;;;14.60;63.19;99202.14;107703;1250;60297;-37
2023/10/29 11:28:52;;;;;;;3.80;2.40;;;;;;;14.42;62.61;99203.69;107699;1251;73847;-38
2023/10/29 11:31:21;;;;;;;5.00;2.90;;;;;;;14.28;63.39;99204.17;107715;1251;67165;-37
2023/10/29 11:33:55;;;;;;;4.40;2.40;;;;;;;14.16;64.05;99205.10;107645;1250;71487;-37
2023/10/29 11:36:33;;;;;;;3.20;2.30;;;;;;;14.12;64.54;99208.84;107666;1252;61665;-37